createdAt,value
2024-03-07T00:00:20.169Z,4.80
2024-03-07T00:02:50.556Z,4.80
2024-03-07T00:05:25.730Z,4.80
2024-03-07T00:07:56.089Z,4.80
2024-03-07T00:10:24.210Z,4.80
2024-03-07T00:12:52.411Z,4.80
2024-03-07T00:15:20.641Z,4.80
2024-03-07T00:17:49.489Z,4.80
2024-03-07T00:20:20.753Z,4.80
2024-03-07T00:22:51.414Z,4.90
2024-03-07T00:25:21.547Z,4.90
2024-03-07T00:27:50.625Z,4.80
2024-03-07T00:30:20.952Z,4.80
2024-03-07T00:32:50.633Z,4.80
2024-03-07T00:35:19.949Z,4.80
2024-03-07T00:37:48.073Z,4.80
2024-03-07T00:40:17.457Z,4.80
2024-03-07T00:42:45.436Z,4.80
2024-03-07T00:45:13.470Z,4.80
2024-03-07T00:47:41.638Z,4.80
2024-03-07T00:50:10.980Z,4.80
2024-03-07T00:52:39.177Z,4.80
2024-03-07T00:55:09.601Z,4.80
2024-03-07T00:57:39.262Z,4.90
2024-03-07T01:00:12.588Z,4.80
2024-03-07T01:02:44.261Z,4.80
2024-03-07T01:05:14.359Z,4.80
2024-03-07T01:07:44.095Z,4.80
2024-03-07T01:10:12.629Z,4.80
2024-03-07T01:12:44.312Z,4.80
2024-03-07T01:15:13.501Z,4.80
2024-03-07T01:17:42.151Z,4.80
2024-03-07T01:20:12.549Z,4.70
2024-03-07T01:22:42.166Z,4.70
2024-03-07T01:25:10.412Z,4.70
2024-03-07T01:27:38.489Z,4.70
2024-03-07T01:30:09.241Z,4.70
2024-03-07T01:32:37.579Z,4.70
2024-03-07T01:35:07.836Z,4.80
2024-03-07T01:37:36.148Z,4.80
2024-03-07T01:40:06.183Z,4.80
2024-03-07T01:42:34.621Z,4.80
2024-03-07T01:45:02.603Z,4.80
2024-03-07T01:47:32.563Z,4.80
2024-03-07T01:50:01.659Z,4.70
2024-03-07T01:52:30.084Z,4.80
2024-03-07T01:54:58.957Z,4.80
2024-03-07T01:57:27.327Z,4.80
2024-03-07T01:59:55.416Z,4.70
2024-03-07T02:02:23.574Z,4.70
2024-03-07T02:04:52.993Z,4.70
2024-03-07T02:07:21.003Z,4.70
2024-03-07T02:09:49.444Z,4.70
2024-03-07T02:12:17.524Z,4.70
2024-03-07T02:14:45.757Z,4.70
2024-03-07T02:17:13.858Z,4.70
2024-03-07T02:19:42.585Z,4.60
2024-03-07T02:22:11.933Z,4.50
2024-03-07T02:24:40.021Z,4.50
2024-03-07T02:27:09.609Z,4.50
2024-03-07T02:29:38.464Z,4.40
2024-03-07T02:32:06.906Z,4.40
2024-03-07T02:34:35.227Z,4.40
2024-03-07T02:37:03.573Z,4.40
2024-03-07T02:39:33.057Z,4.40
2024-03-07T02:42:01.135Z,4.40
2024-03-07T02:44:29.197Z,4.30
2024-03-07T02:46:57.812Z,4.30
2024-03-07T02:49:25.945Z,4.30
2024-03-07T02:51:53.931Z,4.20
2024-03-07T02:54:22.098Z,4.20
2024-03-07T02:56:51.788Z,4.30
2024-03-07T02:59:20.088Z,4.30
2024-03-07T03:01:48.204Z,4.20
2024-03-07T03:04:16.420Z,4.20
2024-03-07T03:06:44.379Z,4.20
2024-03-07T03:09:14.340Z,4.20
2024-03-07T03:11:42.654Z,4.20
2024-03-07T03:14:12.588Z,4.10
2024-03-07T03:16:48.300Z,4.10
2024-03-07T03:19:17.332Z,4.10
2024-03-07T03:21:45.398Z,4.10
2024-03-07T03:24:13.472Z,4.10
2024-03-07T03:26:43.270Z,4.10
2024-03-07T03:29:12.986Z,4.20
2024-03-07T03:31:41.208Z,4.10
2024-03-07T03:34:10.778Z,4.10
2024-03-07T03:36:38.776Z,4.00
2024-03-07T03:39:07.988Z,4.00
2024-03-07T03:41:36.227Z,3.90
2024-03-07T03:44:04.727Z,3.90
2024-03-07T03:46:34.254Z,3.80
2024-03-07T03:49:02.370Z,3.80
2024-03-07T03:51:31.225Z,3.90
2024-03-07T03:53:59.218Z,3.90
2024-03-07T03:56:27.536Z,3.90
2024-03-07T03:58:55.716Z,3.90
2024-03-07T04:01:24.721Z,3.80
2024-03-07T04:03:54.256Z,3.70
2024-03-07T04:06:22.675Z,3.70
2024-03-07T04:08:50.708Z,3.70
2024-03-07T04:11:19.043Z,3.60
2024-03-07T04:13:47.763Z,3.50
2024-03-07T04:16:17.969Z,3.40
2024-03-07T04:18:46.097Z,3.40
2024-03-07T04:21:15.510Z,3.40
2024-03-07T04:23:47.637Z,3.30
2024-03-07T04:26:15.805Z,3.20
2024-03-07T04:28:43.880Z,3.20
2024-03-07T04:31:11.906Z,3.20
2024-03-07T04:33:40.969Z,3.10
2024-03-07T04:36:09.927Z,3.20
2024-03-07T04:38:39.355Z,3.00
2024-03-07T04:41:07.409Z,3.00
2024-03-07T04:43:35.441Z,2.90
2024-03-07T04:46:06.518Z,2.80
2024-03-07T04:48:34.620Z,2.80
2024-03-07T04:51:02.750Z,2.80
2024-03-07T04:53:30.991Z,2.80
2024-03-07T04:56:00.409Z,2.80
2024-03-07T04:58:28.471Z,2.80
2024-03-07T05:00:56.508Z,2.80
2024-03-07T05:03:28.243Z,2.80
2024-03-07T05:05:56.779Z,2.80
2024-03-07T05:08:25.060Z,2.80
2024-03-07T05:10:53.366Z,2.80
2024-03-07T05:13:22.745Z,2.70
2024-03-07T05:15:51.785Z,2.70
2024-03-07T05:18:19.917Z,2.70
2024-03-07T05:20:48.035Z,2.80
2024-03-07T05:23:18.005Z,2.80
2024-03-07T05:25:47.060Z,2.80
2024-03-07T05:28:15.061Z,2.80
2024-03-07T05:30:44.518Z,2.70
2024-03-07T05:33:12.614Z,2.60
2024-03-07T05:35:40.631Z,2.60
2024-03-07T05:38:09.100Z,2.60
2024-03-07T05:40:37.648Z,2.60
2024-03-07T05:43:05.834Z,2.50
2024-03-07T05:45:33.880Z,2.50
2024-03-07T05:48:17.152Z,2.50
2024-03-07T05:50:47.539Z,2.60
2024-03-07T05:53:15.930Z,2.60
2024-03-07T05:55:44.001Z,2.60
2024-03-07T05:58:12.197Z,2.50
2024-03-07T06:00:41.182Z,2.60
2024-03-07T06:03:12.164Z,2.50
2024-03-07T06:05:44.017Z,2.50
2024-03-07T06:08:13.008Z,2.50
2024-03-07T06:10:42.080Z,2.60
2024-03-07T06:13:11.961Z,2.60
2024-03-07T06:15:40.877Z,2.60
2024-03-07T06:18:11.972Z,2.60
2024-03-07T06:20:41.971Z,2.70
2024-03-07T06:23:12.887Z,2.70
2024-03-07T06:25:48.466Z,2.60
2024-03-07T06:28:16.689Z,2.60
2024-03-07T06:30:45.985Z,2.60
2024-03-07T06:33:17.983Z,2.60
2024-03-07T06:35:46.564Z,2.50
2024-03-07T06:38:14.690Z,2.50
2024-03-07T06:40:44.412Z,2.60
2024-03-07T06:43:13.009Z,2.70
2024-03-07T06:45:42.634Z,2.70
2024-03-07T06:48:11.370Z,2.70
2024-03-07T06:50:41.045Z,2.80
2024-03-07T06:53:10.337Z,2.70
2024-03-07T06:55:38.909Z,2.70
2024-03-07T06:58:07.436Z,2.60
2024-03-07T07:00:37.550Z,2.60
2024-03-07T07:03:07.127Z,2.70
2024-03-07T07:05:36.202Z,2.70
2024-03-07T07:08:07.715Z,2.70
2024-03-07T07:10:36.870Z,2.70
2024-03-07T07:13:05.494Z,2.70
2024-03-07T07:15:33.811Z,2.70
2024-03-07T07:18:03.372Z,2.80
2024-03-07T07:20:31.963Z,2.90
2024-03-07T07:23:02.050Z,2.70
2024-03-07T07:25:32.027Z,2.60
2024-03-07T07:28:00.218Z,2.70
2024-03-07T07:30:28.884Z,2.70
2024-03-07T07:32:57.161Z,2.60
2024-03-07T07:35:25.629Z,2.60
2024-03-07T07:37:56.611Z,2.70
2024-03-07T07:40:28.187Z,2.80
2024-03-07T07:42:57.806Z,2.90
2024-03-07T07:45:26.770Z,3.10
2024-03-07T07:47:55.859Z,3.20
2024-03-07T07:50:25.978Z,3.20
2024-03-07T07:52:56.228Z,3.20
2024-03-07T07:55:27.447Z,3.20
2024-03-07T07:57:58.046Z,3.10
2024-03-07T08:00:29.822Z,3.10
2024-03-07T08:02:59.993Z,3.10
2024-03-07T08:05:29.555Z,3.20
2024-03-07T08:07:58.940Z,3.30
2024-03-07T08:10:29.556Z,3.30
2024-03-07T08:12:59.420Z,3.40
2024-03-07T08:15:29.176Z,3.40
2024-03-07T08:17:58.266Z,3.30
2024-03-07T08:20:27.795Z,3.30
2024-03-07T08:22:57.549Z,3.30
2024-03-07T08:25:27.229Z,3.40
2024-03-07T08:27:56.186Z,3.50
2024-03-07T08:30:28.003Z,3.40
2024-03-07T08:32:57.838Z,3.40
2024-03-07T08:35:26.948Z,3.40
2024-03-07T08:37:57.028Z,3.30
2024-03-07T08:40:29.196Z,3.40
2024-03-07T08:42:58.818Z,3.50
2024-03-07T08:45:29.426Z,3.50
2024-03-07T08:47:59.983Z,3.40
2024-03-07T08:50:29.733Z,3.50
2024-03-07T08:52:58.292Z,3.50
2024-03-07T08:55:27.651Z,3.50
2024-03-07T08:57:56.150Z,3.60
2024-03-07T09:00:26.532Z,3.50
2024-03-07T09:03:01.072Z,3.50
2024-03-07T09:05:31.125Z,3.50
2024-03-07T09:08:00.248Z,3.40
2024-03-07T09:10:31.165Z,3.50
2024-03-07T09:13:00.364Z,3.50
2024-03-07T09:15:29.205Z,3.50
2024-03-07T09:17:59.564Z,3.50
2024-03-07T09:20:28.377Z,3.60
2024-03-07T09:22:57.122Z,3.60
2024-03-07T09:25:26.107Z,3.60
2024-03-07T09:27:56.367Z,3.70
2024-03-07T09:30:27.045Z,3.80
2024-03-07T09:32:57.207Z,3.90
2024-03-07T09:35:27.139Z,4.00
2024-03-07T09:37:55.965Z,4.10
2024-03-07T09:40:27.497Z,4.10
2024-03-07T09:42:59.083Z,4.20
2024-03-07T09:45:32.501Z,4.20
2024-03-07T09:48:00.966Z,4.20
2024-03-07T09:50:32.629Z,4.30
2024-03-07T09:53:01.391Z,4.30
2024-03-07T09:55:30.418Z,4.40
2024-03-07T09:58:02.462Z,4.50
2024-03-07T10:00:31.954Z,4.60
2024-03-07T10:03:03.863Z,4.80
2024-03-07T10:05:34.098Z,4.90
2024-03-07T10:08:03.083Z,4.90
2024-03-07T10:10:32.729Z,4.80
2024-03-07T10:13:01.326Z,4.80
2024-03-07T10:15:30.908Z,4.90
2024-03-07T10:17:59.160Z,4.90
2024-03-07T10:20:27.845Z,5.10
2024-03-07T10:22:57.690Z,5.30
2024-03-07T10:25:27.318Z,5.40
2024-03-07T10:27:55.876Z,5.50
2024-03-07T10:30:24.527Z,5.60
2024-03-07T10:32:56.934Z,5.70
2024-03-07T10:35:26.665Z,5.50
2024-03-07T10:37:56.065Z,5.60
2024-03-07T10:40:28.023Z,5.80
2024-03-07T10:43:00.254Z,5.80
2024-03-07T10:45:31.677Z,5.90
2024-03-07T10:48:02.352Z,5.80
2024-03-07T10:50:44.184Z,5.90
2024-03-07T10:53:24.062Z,6.00
2024-03-07T10:56:25.463Z,6.00
2024-03-07T10:59:01.422Z,6.10
2024-03-07T11:01:34.953Z,6.00
2024-03-07T11:04:06.295Z,5.90
2024-03-07T11:06:36.056Z,5.90
2024-03-07T11:09:11.599Z,5.90
2024-03-07T11:11:43.418Z,6.00
2024-03-07T11:14:12.967Z,6.10
2024-03-07T11:16:42.775Z,6.10
2024-03-07T11:19:28.643Z,6.20
2024-03-07T11:21:57.816Z,6.20
2024-03-07T11:24:27.109Z,6.30
2024-03-07T11:26:58.095Z,6.40
2024-03-07T11:29:44.390Z,6.40
2024-03-07T11:32:14.399Z,6.50
2024-03-07T11:34:43.619Z,6.40
2024-03-07T11:37:18.687Z,6.50
2024-03-07T11:39:48.764Z,6.40
2024-03-07T11:42:28.363Z,6.30
2024-03-07T11:44:58.534Z,6.30
2024-03-07T11:47:30.450Z,6.20
2024-03-07T11:49:59.754Z,6.30
2024-03-07T11:52:28.861Z,6.50
2024-03-07T11:55:05.038Z,6.50
2024-03-07T11:57:34.400Z,6.60
2024-03-07T12:00:09.396Z,6.70
2024-03-07T12:02:41.878Z,6.70
2024-03-07T12:05:10.510Z,6.70
2024-03-07T12:07:39.215Z,6.80
2024-03-07T12:10:08.117Z,6.80
2024-03-07T12:12:39.785Z,7.00
2024-03-07T12:15:15.977Z,7.10
2024-03-07T12:17:44.903Z,7.10
2024-03-07T12:20:28.264Z,7.30
2024-03-07T12:22:58.623Z,7.40
2024-03-07T12:25:26.647Z,7.40
2024-03-07T12:28:12.119Z,7.40
2024-03-07T12:30:53.927Z,7.50
2024-03-07T12:33:26.196Z,7.60
2024-03-07T12:36:02.172Z,7.60
2024-03-07T12:38:36.496Z,7.80
2024-03-07T12:41:08.466Z,7.90
2024-03-07T12:43:37.964Z,7.80
2024-03-07T12:46:09.965Z,7.70
2024-03-07T12:48:39.870Z,7.80
2024-03-07T12:51:08.640Z,7.90
2024-03-07T12:53:36.805Z,7.90
2024-03-07T12:56:05.573Z,8.00
2024-03-07T12:58:34.317Z,8.20
2024-03-07T13:01:05.002Z,8.10
2024-03-07T13:03:33.199Z,8.10
2024-03-07T13:06:02.565Z,8.30
2024-03-07T13:08:31.944Z,8.20
2024-03-07T13:11:02.125Z,8.10
2024-03-07T13:13:31.758Z,8.10
2024-03-07T13:16:00.673Z,7.80
2024-03-07T13:18:34.855Z,7.70
2024-03-07T13:21:05.001Z,7.60
2024-03-07T13:23:34.117Z,7.60
2024-03-07T13:26:09.405Z,7.80
2024-03-07T13:28:37.634Z,7.90
2024-03-07T13:31:06.046Z,8.00
2024-03-07T13:33:37.621Z,8.10
2024-03-07T13:36:08.194Z,8.20
2024-03-07T13:38:37.258Z,8.10
2024-03-07T13:41:05.757Z,8.20
2024-03-07T13:43:34.818Z,8.30
2024-03-07T13:46:02.934Z,8.40
2024-03-07T13:48:33.814Z,8.50
2024-03-07T13:51:08.945Z,8.50
2024-03-07T13:53:48.225Z,8.50
2024-03-07T13:56:45.028Z,8.60
2024-03-07T13:59:32.875Z,8.30
2024-03-07T14:02:15.767Z,8.20
2024-03-07T14:05:14.494Z,8.40
2024-03-07T14:07:58.143Z,8.50
2024-03-07T14:10:54.562Z,8.50
2024-03-07T14:13:41.074Z,8.50
2024-03-07T14:16:52.399Z,8.40
2024-03-07T14:19:59.758Z,8.30
2024-03-07T14:23:06.326Z,8.10
2024-03-07T14:26:15.777Z,8.00
2024-03-07T14:29:03.581Z,8.10
2024-03-07T14:31:31.739Z,8.20
2024-03-07T14:34:10.887Z,8.30
2024-03-07T14:36:45.927Z,8.50
2024-03-07T14:39:15.804Z,8.50
2024-03-07T14:41:52.143Z,8.60
2024-03-07T14:44:21.807Z,8.60
2024-03-07T14:46:56.105Z,8.60
2024-03-07T14:49:24.619Z,8.60
2024-03-07T14:51:59.988Z,8.60
2024-03-07T14:54:31.720Z,8.30
2024-03-07T14:56:59.920Z,8.20
2024-03-07T14:59:28.890Z,8.20
2024-03-07T15:01:59.864Z,8.20
2024-03-07T15:04:32.727Z,8.30
2024-03-07T15:07:03.618Z,8.10
2024-03-07T15:09:35.088Z,8.10
2024-03-07T15:12:05.492Z,8.10
2024-03-07T15:14:38.547Z,8.10
2024-03-07T15:17:08.653Z,7.90
2024-03-07T15:19:36.943Z,7.70
2024-03-07T15:22:06.251Z,7.70
2024-03-07T15:24:37.498Z,7.70
2024-03-07T15:27:07.511Z,7.80
2024-03-07T15:29:37.571Z,7.90
2024-03-07T15:32:08.788Z,7.90
2024-03-07T15:34:38.756Z,7.90
2024-03-07T15:37:08.236Z,7.90
2024-03-07T15:39:39.769Z,7.90
2024-03-07T15:42:09.954Z,7.90
2024-03-07T15:44:44.683Z,7.90
2024-03-07T15:47:12.753Z,7.80
2024-03-07T15:49:41.631Z,7.80
2024-03-07T15:52:13.411Z,7.70
2024-03-07T15:54:43.726Z,7.60
2024-03-07T15:57:12.629Z,7.50
2024-03-07T15:59:45.747Z,7.50
2024-03-07T16:02:15.554Z,7.30
2024-03-07T16:04:43.690Z,7.30
2024-03-07T16:07:11.819Z,7.20
2024-03-07T16:09:39.784Z,7.20
2024-03-07T16:12:10.990Z,7.20
2024-03-07T16:14:39.401Z,7.20
2024-03-07T16:17:08.597Z,7.10
2024-03-07T16:19:36.677Z,7.10
2024-03-07T16:22:06.778Z,6.90
2024-03-07T16:24:41.579Z,6.90
2024-03-07T16:27:13.102Z,6.90
2024-03-07T16:29:41.659Z,6.80
2024-03-07T16:32:12.630Z,6.70
2024-03-07T16:34:40.892Z,6.70
2024-03-07T16:37:08.962Z,6.70
2024-03-07T16:39:37.621Z,6.60
2024-03-07T16:42:07.086Z,6.50
2024-03-07T16:44:39.063Z,6.40
2024-03-07T16:47:11.069Z,6.40
2024-03-07T16:49:40.647Z,6.30
2024-03-07T16:52:10.023Z,6.20
2024-03-07T16:54:38.101Z,6.10
2024-03-07T16:57:08.231Z,6.00
2024-03-07T16:59:40.986Z,5.90
2024-03-07T17:02:10.987Z,5.80
2024-03-07T17:04:41.484Z,5.70
2024-03-07T17:07:09.465Z,5.70
2024-03-07T17:09:37.522Z,5.60
2024-03-07T17:12:07.539Z,5.60
2024-03-07T17:14:40.392Z,5.50
2024-03-07T17:17:08.458Z,5.50
2024-03-07T17:19:37.908Z,5.40
2024-03-07T17:22:07.541Z,5.30
2024-03-07T17:24:35.807Z,5.20
2024-03-07T17:27:04.388Z,5.20
2024-03-07T17:29:33.398Z,5.10
2024-03-07T17:32:02.838Z,5.00
2024-03-07T17:34:31.084Z,5.00
2024-03-07T17:36:59.519Z,5.00
2024-03-07T17:39:27.642Z,4.90
2024-03-07T17:41:55.749Z,4.80
2024-03-07T17:44:24.620Z,4.70
2024-03-07T17:46:52.586Z,4.70
2024-03-07T17:49:25.005Z,4.70
2024-03-07T17:51:54.432Z,4.70
2024-03-07T17:54:24.464Z,4.60
2024-03-07T17:56:52.674Z,4.60
2024-03-07T17:59:22.616Z,4.60
2024-03-07T18:01:50.880Z,4.60
2024-03-07T18:04:18.954Z,4.50
2024-03-07T18:06:49.041Z,4.50
2024-03-07T18:09:28.806Z,4.40
2024-03-07T18:12:00.086Z,4.40
2024-03-07T18:14:33.759Z,4.30
2024-03-07T18:17:04.995Z,4.30
2024-03-07T18:19:35.509Z,4.30
2024-03-07T18:22:06.259Z,4.30
2024-03-07T18:24:34.450Z,4.30
2024-03-07T18:27:11.398Z,4.20
2024-03-07T18:29:40.164Z,4.10
2024-03-07T18:32:10.743Z,4.20
2024-03-07T18:34:39.686Z,4.10
2024-03-07T18:37:13.110Z,4.10
2024-03-07T18:39:43.905Z,4.00
2024-03-07T18:42:13.527Z,3.90
2024-03-07T18:44:41.503Z,3.90
2024-03-07T18:47:09.594Z,3.90
2024-03-07T18:49:37.027Z,3.90
2024-03-07T18:52:07.649Z,3.80
2024-03-07T18:54:37.149Z,3.80
2024-03-07T18:57:08.457Z,3.90
2024-03-07T18:59:38.563Z,3.90
2024-03-07T19:02:13.752Z,3.80
2024-03-07T19:04:45.109Z,3.90
2024-03-07T19:07:13.527Z,3.80
2024-03-07T19:09:42.914Z,3.90
2024-03-07T19:12:11.989Z,3.90
2024-03-07T19:14:40.515Z,3.80
2024-03-07T19:17:09.607Z,3.70
2024-03-07T19:19:37.563Z,3.70
2024-03-07T19:22:06.141Z,3.70
2024-03-07T19:24:34.121Z,3.70
2024-03-07T19:27:03.572Z,3.70
2024-03-07T19:29:33.468Z,3.70
2024-03-07T19:32:01.475Z,3.70
2024-03-07T19:34:29.774Z,3.70
2024-03-07T19:36:58.313Z,3.60
2024-03-07T19:39:27.913Z,3.70
2024-03-07T19:42:02.439Z,3.70
2024-03-07T19:44:40.631Z,3.80
2024-03-07T19:47:08.727Z,3.80
2024-03-07T19:49:37.017Z,3.90
2024-03-07T19:52:10.842Z,3.80
2024-03-07T19:54:40.170Z,3.90
2024-03-07T19:57:11.813Z,3.90
2024-03-07T19:59:41.522Z,3.90
2024-03-07T20:02:09.564Z,3.90
2024-03-07T20:04:37.538Z,3.90
2024-03-07T20:07:05.810Z,3.90
2024-03-07T20:09:33.757Z,3.90
2024-03-07T20:12:01.954Z,3.90
2024-03-07T20:14:30.334Z,3.80
2024-03-07T20:16:59.735Z,3.80
2024-03-07T20:19:29.017Z,3.80
2024-03-07T20:21:58.958Z,3.70
2024-03-07T20:24:27.087Z,3.70
2024-03-07T20:26:55.303Z,3.60
2024-03-07T20:29:23.386Z,3.60
2024-03-07T20:31:51.739Z,3.60
2024-03-07T20:34:21.710Z,3.50
2024-03-07T20:36:49.721Z,3.50
2024-03-07T20:39:23.932Z,3.50
2024-03-07T20:41:52.958Z,3.40
2024-03-07T20:44:21.596Z,3.40
2024-03-07T20:46:49.807Z,3.40
2024-03-07T20:49:18.173Z,3.40
2024-03-07T20:51:47.709Z,3.40
2024-03-07T20:54:21.484Z,3.30
2024-03-07T20:56:51.982Z,3.30
2024-03-07T20:59:20.483Z,3.30
2024-03-07T21:01:48.933Z,3.20
2024-03-07T21:04:17.491Z,3.20
2024-03-07T21:06:47.285Z,3.20
2024-03-07T21:09:17.101Z,3.10
2024-03-07T21:11:47.140Z,3.10
2024-03-07T21:14:15.201Z,3.10
2024-03-07T21:16:46.149Z,3.00
2024-03-07T21:19:14.765Z,3.00
2024-03-07T21:21:42.827Z,3.00
2024-03-07T21:24:12.690Z,3.00
2024-03-07T21:26:40.775Z,2.90
2024-03-07T21:29:09.653Z,2.90
2024-03-07T21:31:37.692Z,2.90
2024-03-07T21:34:06.243Z,2.80
2024-03-07T21:36:34.211Z,2.80
2024-03-07T21:39:03.036Z,2.70
2024-03-07T21:41:36.412Z,2.80
2024-03-07T21:44:04.738Z,2.70
2024-03-07T21:46:34.598Z,2.70
2024-03-07T21:49:02.897Z,2.60
2024-03-07T21:51:32.221Z,2.60
2024-03-07T21:54:00.605Z,2.60
2024-03-07T21:56:29.492Z,2.50
2024-03-07T21:58:59.688Z,2.60
2024-03-07T22:01:36.854Z,2.60
2024-03-07T22:04:06.249Z,2.60
2024-03-07T22:06:34.487Z,2.60
2024-03-07T22:09:03.571Z,2.50
2024-03-07T22:11:32.557Z,2.40
2024-03-07T22:14:02.765Z,2.40
2024-03-07T22:16:32.699Z,2.40
2024-03-07T22:19:00.748Z,2.40
2024-03-07T22:21:30.454Z,2.40
2024-03-07T22:23:59.253Z,2.40
2024-03-07T22:26:28.602Z,2.40
2024-03-07T22:28:56.615Z,2.30
2024-03-07T22:31:25.972Z,2.30
2024-03-07T22:33:54.165Z,2.30
2024-03-07T22:36:22.245Z,2.30
2024-03-07T22:38:50.399Z,2.20
2024-03-07T22:41:18.816Z,2.20
2024-03-07T22:43:47.838Z,2.10
2024-03-07T22:46:15.942Z,2.00
2024-03-07T22:48:45.941Z,2.00
2024-03-07T22:51:14.156Z,2.00
2024-03-07T22:53:42.392Z,2.00
2024-03-07T22:56:12.846Z,2.00
2024-03-07T22:58:41.580Z,2.00
2024-03-07T23:01:09.636Z,1.90
2024-03-07T23:03:39.118Z,1.90
2024-03-07T23:06:08.903Z,1.90
2024-03-07T23:08:37.800Z,1.80
2024-03-07T23:11:06.101Z,1.80
2024-03-07T23:13:34.148Z,1.80
2024-03-07T23:16:02.176Z,1.80
2024-03-07T23:18:30.336Z,1.70
2024-03-07T23:20:58.592Z,1.80
2024-03-07T23:23:28.845Z,1.70
2024-03-07T23:25:56.953Z,1.70
2024-03-07T23:28:25.187Z,1.60
2024-03-07T23:30:53.430Z,1.60
2024-03-07T23:33:21.652Z,1.60
2024-03-07T23:35:50.115Z,1.60
2024-03-07T23:38:18.227Z,1.60
2024-03-07T23:40:47.652Z,1.60
2024-03-07T23:43:15.657Z,1.50
2024-03-07T23:45:43.756Z,1.50
2024-03-07T23:48:12.675Z,1.40
2024-03-07T23:50:42.013Z,1.40
2024-03-07T23:53:10.073Z,1.40
2024-03-07T23:55:38.156Z,1.40
2024-03-07T23:58:07.625Z,1.40
